Terminal Aerodrome Forecast
Issued by NWS Twin Cities, MN

Home | Current Version | Previous Version | Graphics & Text | Print | Product List | Glossary On
Versions: 1 2 3 4 5 6 7 8 9 10 11 12 13 14 15 16 17 18 19 20 21 22 23 24 25 26 27 28 29 30 31 32 33
000
FTUS43 KMPX 272300
TAFMSP
TAF
KMSP 272332Z 2800/2906 17004KT P6SM SCT150
     FM280200 15006KT P6SM OVC090
     FM280500 14010KT 5SM -SN SCT015 OVC035
     FM280700 13012KT 2SM -SN BKN020 OVC040
     FM281100 13010KT 6SM -FZDZSN BR SCT012 OVC020
     FM281500 12007KT 6SM BR OVC012=

USA.gov is the U.S. government's official web portal to all federal, state and local government web resources and services.